Elizabeth Mc Allister — WDB7652 — position and weather

sailwx.info

Track history (hours):
 
Tides and Currents Weather Stations Pressure Air Temp Water Temp Dewpoint Dewpoint Depression Visibility Wind Speed Wind Dir Waves Ship Positions

Elizabeth Mc Allister

Owner: MC ALLISTER TOWING & TRANSPORTATION INC, NEW YORK, NY. More information available from US FCC via Universal Licensing System and Coast Guard Vessel Documentation Center.

Last reported at 2015-Jul-24 22:33 UTC. Time now 2015-Aug-01 05:45 UTC.
Position N 40°38' W 074°10'.

Length 31 m.

Type: Tug. MMSI: 366945680.

Date/timePositionNaut miles runAvg speedWind from/ knotsBaromVisibWave heightAir tempDewpointWater temp
2015-Jul-24 22:33N 40°38' W 074°10'1 1.5
2015-Jul-24 21:33N 40°40' W 074°09'1 1.3
2015-Jul-24 20:33N 40°38' W 074°09'0 0.4
2015-Jul-24 19:33N 40°38' W 074°10'0 0.0
2015-Jul-24 18:33N 40°38' W 074°10'0 0.0
2015-Jul-24 17:33N 40°38' W 074°10'2 2.1
2015-Jul-24 16:33N 40°40' W 074°08'0 0.1
2015-Jul-24 15:33N 40°40' W 074°08'5 4.6
2015-Jul-24 14:33N 40°38' W 074°03'5 4.7
2015-Jul-24 13:33N 40°40' W 074°09'1 1.5
2015-Jul-24 12:33N 40°39' W 074°08'3 3.4
2015-Jul-24 11:33N 40°38' W 074°03'5 4.9
2015-Jul-24 10:33N 40°38' W 074°10'0 0.0
2015-Jul-24 09:33N 40°38' W 074°10'0 0.0
2015-Jul-24 08:33N 40°38' W 074°10'0 0.0
2015-Jul-24 07:33N 40°38' W 074°10'0 0.0
2015-Jul-24 06:33N 40°38' W 074°10'0 0.0
2015-Jul-24 05:33N 40°38' W 074°10'0 0.0
2015-Jul-24 04:33N 40°38' W 074°10'0 0.0
2015-Jul-24 03:33N 40°38' W 074°10'4 4.4
2015-Jul-24 02:33N 40°40' W 074°04'0 0.3
2015-Jul-24 01:33N 40°40' W 074°04'4 3.9
2015-Jul-24 00:33N 40°39' W 074°09'1 0.6
2015-Jul-23 23:33N 40°39' W 074°09'2 2.2
2015-Jul-23 22:33N 40°41' W 074°08'5 4.7
2015-Jul-23 21:33N 40°38' W 074°03'2 1.8
2015-Jul-23 20:33N 40°40' W 074°03'4 4.0
2015-Jul-23 19:33N 40°42' W 073°58'3 3.4
2015-Jul-23 18:33N 40°40' W 074°01'12 9.8
2015-Jul-23 17:18N 40°27' W 074°03'0 0.1
2015-Jul-23 14:18N 40°27' W 074°03'0 0.0
2015-Jul-23 12:32N 40°27' W 074°03'0 0.0
2015-Jul-23 01:21N 40°27' W 074°03'0 0.0
2015-Jul-23 00:33N 40°27' W 074°03'0 0.0
2015-Jul-22 15:32N 40°27' W 074°03'0 0.0
2015-Jul-22 14:30N 40°27' W 074°03'0 0.0
2015-Jul-22 13:21N 40°27' W 074°03'0 0.0
2015-Jul-22 12:24N 40°27' W 074°03'0 0.0
2015-Jul-22 11:30N 40°27' W 074°03'0 0.0
2015-Jul-22 07:23N 40°27' W 074°03'0 0.0
2015-Jul-22 04:08N 40°27' W 074°03'0 0.0
2015-Jul-22 03:33N 40°27' W 074°03'0 0.0
2015-Jul-22 02:31N 40°27' W 074°03'0 0.0
2015-Jul-22 00:24N 40°27' W 074°03'0 0.0
2015-Jul-21 18:32N 40°27' W 074°03'0 0.0
2015-Jul-21 17:33N 40°27' W 074°03'0 0.0
2015-Jul-21 14:08N 40°27' W 074°03'0 0.0
2015-Jul-21 13:34N 40°27' W 074°03'0 0.0
2015-Jul-21 12:33N 40°27' W 074°03'0 0.0
2015-Jul-21 11:33N 40°27' W 074°03'0 0.0
2015-Jul-21 10:33N 40°27' W 074°03'0 0.0
2015-Jul-21 09:33N 40°27' W 074°03'0 0.0
2015-Jul-21 08:33N 40°27' W 074°03'0 0.0
2015-Jul-21 07:32N 40°27' W 074°03'0 0.0
2015-Jul-21 06:12N 40°27' W 074°03'0 0.0
2015-Jul-20 13:24N 40°27' W 074°03'0 0.0
2015-Jul-20 12:20N 40°27' W 074°03'0 0.0
2015-Jul-20 11:33N 40°27' W 074°03'0 0.0
2015-Jul-20 10:33N 40°27' W 074°03'0 0.0
2015-Jul-20 09:33N 40°27' W 074°03'0 0.0
2015-Jul-20 08:33N 40°27' W 074°03'0 0.0
2015-Jul-20 07:33N 40°27' W 074°03'0 0.0
2015-Jul-19 15:33N 40°27' W 074°03'0 0.0
2015-Jul-19 14:29N 40°27' W 074°03'0 0.0
2015-Jul-19 13:28N 40°27' W 074°03'0 0.0
2015-Jul-19 12:32N 40°27' W 074°03'0 0.0
2015-Jul-19 11:30N 40°27' W 074°03'0 0.0
2015-Jul-19 10:31N 40°27' W 074°03'0 0.0
2015-Jul-18 21:22N 40°27' W 074°03'0 0.0
2015-Jul-18 06:32N 40°27' W 074°03'0 0.0
2015-Jul-18 05:33N 40°27' W 074°03'0 0.0
2015-Jul-18 04:34N 40°27' W 074°03'0 0.0
2015-Jul-18 03:33N 40°27' W 074°03'0 0.0
2015-Jul-18 02:33N 40°27' W 074°03'0 0.0
2015-Jul-18 01:31N 40°27' W 074°03'0 0.0
2015-Jul-18 00:34N 40°27' W 074°03'0 0.0
2015-Jul-17 23:33N 40°27' W 074°03'0 0.0
2015-Jul-17 22:33N 40°27' W 074°03'0 0.0
2015-Jul-17 20:14N 40°27' W 074°03'0 0.0
2015-Jul-17 17:21N 40°27' W 074°03'0 0.0
2015-Jul-17 15:08N 40°27' W 074°03'0 0.0
2015-Jul-17 11:27N 40°27' W 074°03'0 0.0
2015-Jul-17 10:30N 40°27' W 074°03'0 0.0
2015-Jul-17 09:31N 40°27' W 074°03'0 0.0
2015-Jul-17 08:20N 40°27' W 074°03'0 0.0
2015-Jul-17 07:11N 40°27' W 074°03'0 0.0
2015-Jul-17 06:33N 40°27' W 074°03'0 0.0
2015-Jul-17 03:30N 40°27' W 074°03'0 0.0
2015-Jul-17 02:32N 40°27' W 074°03'0 0.0
2015-Jul-17 01:33N 40°27' W 074°03'0 0.0
2015-Jul-16 19:27N 40°27' W 074°03'0 0.0
2015-Jul-16 15:30N 40°27' W 074°03'0 0.0
2015-Jul-16 13:29N 40°27' W 074°03'0 0.0
2015-Jul-16 12:32N 40°27' W 074°03'0 0.0
2015-Jul-16 11:33N 40°27' W 074°03'0 0.0
2015-Jul-16 10:32N 40°27' W 074°03'0 0.0
2015-Jul-16 09:32N 40°27' W 074°03'0 0.0
2015-Jul-16 06:26N 40°27' W 074°03'0 0.0
2015-Jul-16 00:04N 40°27' W 074°03'0 0.0
2015-Jul-15 21:03N 40°27' W 074°03'0 0.0
2015-Jul-15 14:08N 40°27' W 074°03'0 0.3
2015-Jul-15 13:28N 40°27' W 074°03'0 0.0
2015-Jul-15 12:32N 40°27' W 074°03'0 0.5
2015-Jul-15 11:33N 40°28' W 074°03'1010.2
2015-Jul-15 10:33N 40°38' W 074°04'  
Track history (hours):
 
Tides and Currents Weather Stations Pressure Air Temp Water Temp Dewpoint Dewpoint Depression Visibility Wind Speed Wind Dir Waves Ship Positions

Elizabeth Mc Allister

Owner: MC ALLISTER TOWING & TRANSPORTATION INC, NEW YORK, NY. More information available from US FCC via Universal Licensing System and Coast Guard Vessel Documentation Center.

Last reported at 2015-Jul-24 22:33 UTC. Time now 2015-Aug-01 05:45 UTC.
Position N 40°38' W 074°10'.

Length 31 m.

Type: Tug. MMSI: 366945680.

Date/timePositionNaut miles runAvg speedWind from/ knotsBaromVisibWave heightAir tempDewpointWater temp
2015-Jul-24 22:33N 40°38' W 074°10'1 1.5
2015-Jul-24 21:33N 40°40' W 074°09'1 1.3
2015-Jul-24 20:33N 40°38' W 074°09'0 0.4
2015-Jul-24 19:33N 40°38' W 074°10'0 0.0
2015-Jul-24 18:33N 40°38' W 074°10'0 0.0
2015-Jul-24 17:33N 40°38' W 074°10'2 2.1
2015-Jul-24 16:33N 40°40' W 074°08'0 0.1
2015-Jul-24 15:33N 40°40' W 074°08'5 4.6
2015-Jul-24 14:33N 40°38' W 074°03'5 4.7
2015-Jul-24 13:33N 40°40' W 074°09'1 1.5
2015-Jul-24 12:33N 40°39' W 074°08'3 3.4
2015-Jul-24 11:33N 40°38' W 074°03'5 4.9
2015-Jul-24 10:33N 40°38' W 074°10'0 0.0
2015-Jul-24 09:33N 40°38' W 074°10'0 0.0
2015-Jul-24 08:33N 40°38' W 074°10'0 0.0
2015-Jul-24 07:33N 40°38' W 074°10'0 0.0
2015-Jul-24 06:33N 40°38' W 074°10'0 0.0
2015-Jul-24 05:33N 40°38' W 074°10'0 0.0
2015-Jul-24 04:33N 40°38' W 074°10'0 0.0
2015-Jul-24 03:33N 40°38' W 074°10'4 4.4
2015-Jul-24 02:33N 40°40' W 074°04'0 0.3
2015-Jul-24 01:33N 40°40' W 074°04'4 3.9
2015-Jul-24 00:33N 40°39' W 074°09'1 0.6
2015-Jul-23 23:33N 40°39' W 074°09'2 2.2
2015-Jul-23 22:33N 40°41' W 074°08'5 4.7
2015-Jul-23 21:33N 40°38' W 074°03'2 1.8
2015-Jul-23 20:33N 40°40' W 074°03'4 4.0
2015-Jul-23 19:33N 40°42' W 073°58'3 3.4
2015-Jul-23 18:33N 40°40' W 074°01'12 9.8
2015-Jul-23 17:18N 40°27' W 074°03'0 0.1
2015-Jul-23 14:18N 40°27' W 074°03'0 0.0
2015-Jul-23 12:32N 40°27' W 074°03'0 0.0
2015-Jul-23 01:21N 40°27' W 074°03'0 0.0
2015-Jul-23 00:33N 40°27' W 074°03'0 0.0
2015-Jul-22 15:32N 40°27' W 074°03'0 0.0
2015-Jul-22 14:30N 40°27' W 074°03'0 0.0
2015-Jul-22 13:21N 40°27' W 074°03'0 0.0
2015-Jul-22 12:24N 40°27' W 074°03'0 0.0
2015-Jul-22 11:30N 40°27' W 074°03'0 0.0
2015-Jul-22 07:23N 40°27' W 074°03'0 0.0
2015-Jul-22 04:08N 40°27' W 074°03'0 0.0
2015-Jul-22 03:33N 40°27' W 074°03'0 0.0
2015-Jul-22 02:31N 40°27' W 074°03'0 0.0
2015-Jul-22 00:24N 40°27' W 074°03'0 0.0
2015-Jul-21 18:32N 40°27' W 074°03'0 0.0
2015-Jul-21 17:33N 40°27' W 074°03'0 0.0
2015-Jul-21 14:08N 40°27' W 074°03'0 0.0
2015-Jul-21 13:34N 40°27' W 074°03'0 0.0
2015-Jul-21 12:33N 40°27' W 074°03'0 0.0
2015-Jul-21 11:33N 40°27' W 074°03'0 0.0
2015-Jul-21 10:33N 40°27' W 074°03'0 0.0
2015-Jul-21 09:33N 40°27' W 074°03'0 0.0
2015-Jul-21 08:33N 40°27' W 074°03'0 0.0
2015-Jul-21 07:32N 40°27' W 074°03'0 0.0
2015-Jul-21 06:12N 40°27' W 074°03'0 0.0
2015-Jul-20 13:24N 40°27' W 074°03'0 0.0
2015-Jul-20 12:20N 40°27' W 074°03'0 0.0
2015-Jul-20 11:33N 40°27' W 074°03'0 0.0
2015-Jul-20 10:33N 40°27' W 074°03'0 0.0
2015-Jul-20 09:33N 40°27' W 074°03'0 0.0
2015-Jul-20 08:33N 40°27' W 074°03'0 0.0
2015-Jul-20 07:33N 40°27' W 074°03'0 0.0
2015-Jul-19 15:33N 40°27' W 074°03'0 0.0
2015-Jul-19 14:29N 40°27' W 074°03'0 0.0
2015-Jul-19 13:28N 40°27' W 074°03'0 0.0
2015-Jul-19 12:32N 40°27' W 074°03'0 0.0
2015-Jul-19 11:30N 40°27' W 074°03'0 0.0
2015-Jul-19 10:31N 40°27' W 074°03'0 0.0
2015-Jul-18 21:22N 40°27' W 074°03'0 0.0
2015-Jul-18 06:32N 40°27' W 074°03'0 0.0
2015-Jul-18 05:33N 40°27' W 074°03'0 0.0
2015-Jul-18 04:34N 40°27' W 074°03'0 0.0
2015-Jul-18 03:33N 40°27' W 074°03'0 0.0
2015-Jul-18 02:33N 40°27' W 074°03'0 0.0
2015-Jul-18 01:31N 40°27' W 074°03'0 0.0
2015-Jul-18 00:34N 40°27' W 074°03'0 0.0
2015-Jul-17 23:33N 40°27' W 074°03'0 0.0
2015-Jul-17 22:33N 40°27' W 074°03'0 0.0
2015-Jul-17 20:14N 40°27' W 074°03'0 0.0
2015-Jul-17 17:21N 40°27' W 074°03'0 0.0
2015-Jul-17 15:08N 40°27' W 074°03'0 0.0
2015-Jul-17 11:27N 40°27' W 074°03'0 0.0
2015-Jul-17 10:30N 40°27' W 074°03'0 0.0
2015-Jul-17 09:31N 40°27' W 074°03'0 0.0
2015-Jul-17 08:20N 40°27' W 074°03'0 0.0
2015-Jul-17 07:11N 40°27' W 074°03'0 0.0
2015-Jul-17 06:33N 40°27' W 074°03'0 0.0
2015-Jul-17 03:30N 40°27' W 074°03'0 0.0
2015-Jul-17 02:32N 40°27' W 074°03'0 0.0
2015-Jul-17 01:33N 40°27' W 074°03'0 0.0
2015-Jul-16 19:27N 40°27' W 074°03'0 0.0
2015-Jul-16 15:30N 40°27' W 074°03'0 0.0
2015-Jul-16 13:29N 40°27' W 074°03'0 0.0
2015-Jul-16 12:32N 40°27' W 074°03'0 0.0
2015-Jul-16 11:33N 40°27' W 074°03'0 0.0
2015-Jul-16 10:32N 40°27' W 074°03'0 0.0
2015-Jul-16 09:32N 40°27' W 074°03'0 0.0
2015-Jul-16 06:26N 40°27' W 074°03'0 0.0
2015-Jul-16 00:04N 40°27' W 074°03'0 0.0
2015-Jul-15 21:03N 40°27' W 074°03'0 0.0
2015-Jul-15 14:08N 40°27' W 074°03'0 0.3
2015-Jul-15 13:28N 40°27' W 074°03'0 0.0
2015-Jul-15 12:32N 40°27' W 074°03'0 0.5
2015-Jul-15 11:33N 40°28' W 074°03'1010.2
2015-Jul-15 10:33N 40°38' W 074°04'  

Dump ship's entire track history